createdAt,value
2023-05-12T00:01:14.982Z,56.96
2023-05-12T00:03:42.556Z,56.98
2023-05-12T00:06:09.869Z,57.04
2023-05-12T00:08:37.461Z,57.28
2023-05-12T00:11:04.906Z,57.50
2023-05-12T00:13:32.463Z,57.37
2023-05-12T00:15:59.817Z,57.60
2023-05-12T00:18:28.937Z,57.15
2023-05-12T00:20:57.350Z,57.04
2023-05-12T00:23:25.753Z,57.11
2023-05-12T00:25:54.300Z,56.87
2023-05-12T00:28:21.706Z,57.16
2023-05-12T00:30:50.504Z,57.26
2023-05-12T00:33:18.141Z,57.14
2023-05-12T00:35:46.142Z,57.13
2023-05-12T00:38:14.147Z,57.46
2023-05-12T00:40:41.629Z,57.27
2023-05-12T00:43:09.028Z,57.08
2023-05-12T00:45:37.076Z,57.23
2023-05-12T00:48:06.615Z,57.63
2023-05-12T00:50:34.778Z,58.04
2023-05-12T00:53:02.420Z,57.95
2023-05-12T00:55:31.754Z,57.63
2023-05-12T00:57:59.940Z,57.68
2023-05-12T01:00:33.506Z,57.91
2023-05-12T01:03:00.987Z,58.21
2023-05-12T01:05:43.136Z,58.49
2023-05-12T01:08:11.915Z,58.40
2023-05-12T01:10:44.918Z,58.59
2023-05-12T01:13:12.309Z,58.72
2023-05-12T01:15:52.057Z,58.99
2023-05-12T01:18:22.044Z,60.34
2023-05-12T01:20:50.632Z,60.33
2023-05-12T01:23:20.259Z,60.61
2023-05-12T01:25:50.547Z,60.70
2023-05-12T01:28:19.945Z,60.84
2023-05-12T01:30:49.208Z,62.72
2023-05-12T01:33:18.737Z,63.36
2023-05-12T01:35:45.927Z,63.78
2023-05-12T01:38:13.464Z,64.69
2023-05-12T01:40:40.943Z,65.93
2023-05-12T01:43:08.309Z,65.53
2023-05-12T01:45:35.825Z,64.59
2023-05-12T01:48:03.389Z,64.99
2023-05-12T01:50:30.797Z,64.50
2023-05-12T01:52:59.296Z,63.74
2023-05-12T01:55:27.742Z,63.03
2023-05-12T01:57:56.154Z,62.97
2023-05-12T02:00:23.837Z,62.48
2023-05-12T02:02:51.073Z,62.56
2023-05-12T02:05:18.825Z,62.02
2023-05-12T02:07:53.102Z,62.17
2023-05-12T02:10:21.035Z,61.63
2023-05-12T02:12:48.857Z,61.56
2023-05-12T02:15:16.081Z,61.58
2023-05-12T02:17:43.621Z,61.29
2023-05-12T02:20:12.632Z,61.12
2023-05-12T02:22:40.111Z,61.08
2023-05-12T02:25:08.094Z,61.26
2023-05-12T02:27:47.888Z,61.50
2023-05-12T02:30:15.977Z,61.47
2023-05-12T02:32:43.260Z,61.26
2023-05-12T02:35:11.899Z,61.37
2023-05-12T02:37:39.258Z,61.44
2023-05-12T02:40:08.245Z,61.21
2023-05-12T02:42:35.893Z,61.59
2023-05-12T02:45:04.242Z,61.90
2023-05-12T02:47:33.750Z,61.67
2023-05-12T02:50:01.105Z,61.50
2023-05-12T02:52:29.840Z,61.94
2023-05-12T02:54:58.039Z,61.85
2023-05-12T02:57:27.820Z,62.11
2023-05-12T02:59:56.164Z,61.79
2023-05-12T03:02:23.321Z,61.63
2023-05-12T03:04:50.888Z,61.73
2023-05-12T03:07:18.484Z,61.58
2023-05-12T03:09:45.861Z,61.40
2023-05-12T03:12:14.449Z,61.54
2023-05-12T03:14:41.904Z,61.56
2023-05-12T03:17:09.628Z,61.58
2023-05-12T03:19:36.883Z,61.45
2023-05-12T03:22:07.747Z,61.75
2023-05-12T03:24:35.914Z,61.45
2023-05-12T03:27:04.404Z,61.26
2023-05-12T03:29:32.191Z,61.22
2023-05-12T03:32:01.396Z,61.47
2023-05-12T03:34:28.892Z,61.26
2023-05-12T03:37:02.508Z,61.20
2023-05-12T03:39:31.067Z,61.11
2023-05-12T03:41:59.344Z,61.17
2023-05-12T03:44:26.913Z,61.17
2023-05-12T03:46:54.392Z,61.43
2023-05-12T03:49:22.754Z,61.77
2023-05-12T03:51:50.300Z,62.26
2023-05-12T03:54:17.882Z,61.70
2023-05-12T03:56:45.223Z,61.76
2023-05-12T03:59:12.678Z,61.65
2023-05-12T04:01:40.178Z,61.55
2023-05-12T04:04:09.648Z,61.30
2023-05-12T04:06:37.342Z,60.99
2023-05-12T04:09:04.901Z,61.08
2023-05-12T04:11:32.532Z,60.75
2023-05-12T04:14:01.941Z,61.29
2023-05-12T04:16:29.489Z,61.20
2023-05-12T04:18:57.762Z,61.18
2023-05-12T04:21:26.985Z,60.82
2023-05-12T04:23:54.498Z,59.95
2023-05-12T04:26:23.967Z,60.47
2023-05-12T04:28:53.683Z,60.82
2023-05-12T04:31:22.013Z,60.19
2023-05-12T04:33:50.046Z,60.30
2023-05-12T04:36:18.434Z,60.52
2023-05-12T04:38:46.135Z,60.62
2023-05-12T04:41:13.220Z,60.58
2023-05-12T04:46:10.784Z,60.62
2023-05-12T04:48:42.242Z,60.67
2023-05-12T04:51:10.071Z,60.80
2023-05-12T04:53:38.380Z,60.98
2023-05-12T04:56:06.864Z,60.44
2023-05-12T04:58:35.344Z,59.47
2023-05-12T05:01:02.734Z,60.40
2023-05-12T05:03:30.403Z,60.22
2023-05-12T05:05:58.764Z,60.12
2023-05-12T05:08:28.456Z,60.27
2023-05-12T05:10:55.710Z,60.29
2023-05-12T05:13:24.164Z,59.66
2023-05-12T05:15:55.093Z,60.07
2023-05-12T05:18:24.399Z,60.21
2023-05-12T05:20:57.809Z,60.28
2023-05-12T05:23:26.641Z,60.12
2023-05-12T05:25:54.149Z,60.35
2023-05-12T05:28:22.787Z,60.16
2023-05-12T05:30:50.153Z,60.33
2023-05-12T05:33:17.496Z,59.35
2023-05-12T05:35:45.904Z,59.17
2023-05-12T05:38:13.613Z,59.87
2023-05-12T05:40:52.028Z,59.76
2023-05-12T05:43:19.822Z,59.38
2023-05-12T05:45:50.137Z,59.27
2023-05-12T05:48:24.293Z,58.70
2023-05-12T05:50:52.944Z,58.37
2023-05-12T05:53:21.423Z,58.68
2023-05-12T05:55:52.068Z,58.88
2023-05-12T05:58:19.254Z,58.65
2023-05-12T06:00:47.163Z,58.79
2023-05-12T06:03:14.762Z,57.97
2023-05-12T06:05:44.412Z,58.08
2023-05-12T06:08:13.748Z,58.92
2023-05-12T06:10:43.861Z,58.32
2023-05-12T06:13:12.426Z,57.70
2023-05-12T06:15:45.868Z,58.78
2023-05-12T06:18:14.292Z,58.17
2023-05-12T06:20:42.691Z,58.74
2023-05-12T06:23:10.252Z,57.73
2023-05-12T06:25:38.598Z,57.92
2023-05-12T06:28:06.195Z,57.63
2023-05-12T06:30:35.723Z,57.13
2023-05-12T06:33:03.174Z,56.17
2023-05-12T06:35:30.477Z,56.53
2023-05-12T06:37:58.110Z,56.68
2023-05-12T06:40:25.432Z,56.52
2023-05-12T06:42:55.018Z,56.51
2023-05-12T06:45:23.972Z,56.28
2023-05-12T06:47:58.044Z,56.33
2023-05-12T06:50:25.567Z,56.07
2023-05-12T06:52:54.002Z,56.07
2023-05-12T06:55:22.329Z,55.49
2023-05-12T06:57:55.936Z,54.88
2023-05-12T07:00:25.176Z,54.48
2023-05-12T07:02:53.133Z,54.54
2023-05-12T07:05:21.514Z,54.82
2023-05-12T07:07:55.145Z,54.90
2023-05-12T07:10:22.692Z,54.13
2023-05-12T07:12:50.122Z,53.42
2023-05-12T07:15:17.548Z,55.66
2023-05-12T07:17:46.164Z,55.16
2023-05-12T07:20:25.780Z,54.67
2023-05-12T07:22:55.144Z,53.90
2023-05-12T07:25:22.993Z,53.63
2023-05-12T07:27:56.960Z,52.67
2023-05-12T07:30:25.141Z,52.80
2023-05-12T07:32:53.355Z,53.33
2023-05-12T07:35:21.022Z,53.19
2023-05-12T07:37:48.972Z,51.91
2023-05-12T07:40:16.278Z,51.59
2023-05-12T07:42:43.636Z,51.33
2023-05-12T07:45:12.250Z,51.89
2023-05-12T07:47:42.332Z,50.96
2023-05-12T07:50:09.672Z,51.09
2023-05-12T07:52:47.421Z,50.15
2023-05-12T07:55:15.878Z,50.11
2023-05-12T07:57:43.829Z,49.88
2023-05-12T08:00:11.902Z,48.99
2023-05-12T08:02:39.326Z,49.31
2023-05-12T08:05:07.783Z,48.85
2023-05-12T08:07:34.863Z,48.16
2023-05-12T08:10:03.030Z,48.34
2023-05-12T08:12:31.646Z,47.70
2023-05-12T08:15:00.593Z,49.23
2023-05-12T08:17:29.294Z,48.38
2023-05-12T08:19:57.148Z,47.29
2023-05-12T08:22:24.438Z,46.88
2023-05-12T08:24:53.141Z,46.11
2023-05-12T08:27:21.472Z,47.55
2023-05-12T08:29:48.861Z,47.76
2023-05-12T08:32:16.845Z,44.90
2023-05-12T08:34:44.350Z,45.45
2023-05-12T08:37:12.858Z,47.04
2023-05-12T08:39:41.622Z,47.06
2023-05-12T08:42:27.263Z,46.99
2023-05-12T08:44:55.200Z,43.97
2023-05-12T08:47:25.180Z,43.56
2023-05-12T08:50:03.718Z,44.54
2023-05-12T08:52:34.013Z,43.69
2023-05-12T08:55:03.457Z,43.31
2023-05-12T08:57:32.010Z,43.65
2023-05-12T09:00:02.171Z,43.41
2023-05-12T09:02:44.764Z,42.76
2023-05-12T09:05:18.890Z,41.87
2023-05-12T09:07:50.092Z,43.28
2023-05-12T09:10:33.704Z,42.73
2023-05-12T09:13:18.059Z,42.62
2023-05-12T09:15:47.814Z,40.31
2023-05-12T09:18:17.923Z,39.86
2023-05-12T09:20:45.470Z,41.11
2023-05-12T09:23:20.799Z,40.25
2023-05-12T09:26:03.284Z,38.01
2023-05-12T09:28:39.059Z,38.51
2023-05-12T09:31:20.003Z,38.44
2023-05-12T09:33:47.499Z,37.17
2023-05-12T09:36:24.953Z,36.38
2023-05-12T09:39:08.302Z,36.80
2023-05-12T09:41:43.492Z,35.55
2023-05-12T09:44:14.952Z,36.13
2023-05-12T09:46:42.532Z,35.48
2023-05-12T09:49:12.001Z,33.53
2023-05-12T09:51:41.223Z,34.26
2023-05-12T09:54:25.242Z,31.90
2023-05-12T09:56:53.166Z,33.20
2023-05-12T09:59:24.390Z,32.66
2023-05-12T10:01:52.240Z,32.15
2023-05-12T10:04:21.305Z,33.02
2023-05-12T10:06:49.475Z,32.26
2023-05-12T10:09:24.270Z,32.57
2023-05-12T10:11:53.949Z,32.30
2023-05-12T10:14:23.091Z,31.87
2023-05-12T10:16:50.665Z,32.66
2023-05-12T10:19:19.508Z,31.47
2023-05-12T10:21:47.600Z,30.08
2023-05-12T10:24:18.193Z,31.00
2023-05-12T10:26:45.763Z,32.39
2023-05-12T10:29:14.760Z,30.81
2023-05-12T10:31:45.505Z,31.96
2023-05-12T10:34:21.924Z,30.88
2023-05-12T10:36:52.627Z,30.62
2023-05-12T10:39:20.319Z,32.69
2023-05-12T10:41:47.453Z,31.19
2023-05-12T10:44:14.588Z,31.54
2023-05-12T10:46:42.672Z,31.66
2023-05-12T10:49:13.378Z,31.48
2023-05-12T10:51:43.867Z,32.64
2023-05-12T10:54:13.390Z,31.48
2023-05-12T10:56:45.244Z,31.07
2023-05-12T10:59:22.004Z,32.41
2023-05-12T11:02:06.784Z,31.97
2023-05-12T11:04:58.486Z,32.40
2023-05-12T11:07:31.124Z,31.94
2023-05-12T11:10:05.897Z,32.21
2023-05-12T11:12:38.376Z,32.35
2023-05-12T11:15:07.211Z,32.54
2023-05-12T11:17:41.223Z,32.02
2023-05-12T11:20:12.317Z,31.69
2023-05-12T11:22:41.615Z,31.84
2023-05-12T11:25:14.987Z,32.43
2023-05-12T11:27:51.763Z,32.99
2023-05-12T11:30:20.110Z,30.91
2023-05-12T11:33:00.010Z,31.00
2023-05-12T11:35:31.833Z,30.16
2023-05-12T11:37:59.020Z,29.10
2023-05-12T11:40:27.620Z,29.58
2023-05-12T11:42:59.506Z,28.47
2023-05-12T11:45:30.874Z,29.21
2023-05-12T11:48:18.480Z,28.29
2023-05-12T11:50:50.096Z,28.98
2023-05-12T11:53:19.616Z,29.61
2023-05-12T11:55:55.555Z,29.55
2023-05-12T11:58:30.850Z,30.26
2023-05-12T12:01:12.975Z,30.52
2023-05-12T12:03:49.260Z,31.36
2023-05-12T12:06:17.028Z,29.94
2023-05-12T12:09:00.280Z,29.38
2023-05-12T12:11:28.731Z,27.55
2023-05-12T12:13:59.564Z,28.53
2023-05-12T12:16:28.822Z,28.59
2023-05-12T12:18:56.944Z,29.03
2023-05-12T12:21:27.430Z,28.51
2023-05-12T12:23:54.743Z,28.26
2023-05-12T12:26:23.428Z,29.18
2023-05-12T12:28:52.155Z,29.87
2023-05-12T12:31:19.800Z,29.89
2023-05-12T12:33:47.070Z,27.82
2023-05-12T12:36:16.662Z,28.83
2023-05-12T12:38:43.957Z,28.33
2023-05-12T12:41:13.975Z,28.96
2023-05-12T12:43:43.490Z,29.85
2023-05-12T12:46:11.136Z,30.06
2023-05-12T12:48:38.509Z,30.51
2023-05-12T12:51:06.504Z,29.19
2023-05-12T12:53:34.811Z,29.71
2023-05-12T12:56:02.080Z,29.66
2023-05-12T12:58:29.841Z,27.94
2023-05-12T13:00:57.560Z,29.08
2023-05-12T13:03:24.775Z,29.44
2023-05-12T13:05:52.670Z,30.10
2023-05-12T13:08:21.442Z,29.44
2023-05-12T13:10:48.968Z,29.60
2023-05-12T13:13:16.387Z,29.85
2023-05-12T13:15:46.050Z,30.72
2023-05-12T13:18:13.317Z,30.60
2023-05-12T13:20:41.035Z,29.39
2023-05-12T13:23:09.306Z,30.22
2023-05-12T13:25:37.018Z,30.10
2023-05-12T13:28:10.520Z,30.83
2023-05-12T13:30:38.143Z,29.84
2023-05-12T13:33:06.116Z,29.83
2023-05-12T13:35:33.905Z,29.37
2023-05-12T13:38:01.142Z,29.61
2023-05-12T13:40:29.724Z,29.58
2023-05-12T13:42:57.176Z,29.97
2023-05-12T13:45:24.870Z,29.52
2023-05-12T13:47:52.544Z,29.37
2023-05-12T13:50:20.039Z,29.81
2023-05-12T13:52:48.608Z,29.57
2023-05-12T13:55:20.758Z,28.00
2023-05-12T13:57:50.008Z,29.75
2023-05-12T14:00:18.905Z,30.11
2023-05-12T14:02:46.119Z,30.00
2023-05-12T14:05:13.597Z,30.73
2023-05-12T14:07:42.834Z,30.71
2023-05-12T14:10:11.089Z,29.52
2023-05-12T14:12:42.803Z,29.71
2023-05-12T14:15:24.063Z,29.95
2023-05-12T14:17:59.539Z,30.22
2023-05-12T14:20:26.826Z,29.79
2023-05-12T14:22:54.443Z,29.70
2023-05-12T14:25:22.064Z,30.32
2023-05-12T14:27:49.718Z,29.45
2023-05-12T14:30:18.212Z,28.73
2023-05-12T14:32:45.777Z,29.28
2023-05-12T14:35:13.502Z,28.47
2023-05-12T14:37:42.231Z,27.99
2023-05-12T14:40:15.773Z,26.89
2023-05-12T14:42:43.118Z,28.45
2023-05-12T14:45:12.649Z,28.04
2023-05-12T14:47:40.054Z,27.97
2023-05-12T14:50:09.172Z,26.77
2023-05-12T14:52:38.772Z,26.29
2023-05-12T14:55:12.027Z,26.51
2023-05-12T14:57:40.473Z,27.84
2023-05-12T15:00:11.130Z,27.28
2023-05-12T15:02:39.273Z,27.08
2023-05-12T15:05:08.634Z,26.95
2023-05-12T15:07:37.077Z,27.54
2023-05-12T15:10:06.159Z,28.69
2023-05-12T15:12:34.879Z,28.22
2023-05-12T15:15:11.870Z,28.46
2023-05-12T15:17:39.621Z,27.77
2023-05-12T15:20:08.288Z,27.73
2023-05-12T15:22:35.941Z,28.09
2023-05-12T15:25:04.804Z,28.91
2023-05-12T15:27:35.686Z,29.02
2023-05-12T15:30:04.543Z,29.14
2023-05-12T15:32:32.094Z,28.95
2023-05-12T15:35:00.500Z,29.03
2023-05-12T15:37:28.116Z,28.30
2023-05-12T15:39:57.420Z,27.97
2023-05-12T15:42:29.941Z,27.99
2023-05-12T15:45:00.587Z,28.07
2023-05-12T15:47:28.188Z,28.52
2023-05-12T15:49:55.429Z,29.30
2023-05-12T15:52:23.325Z,28.94
2023-05-12T15:54:50.816Z,29.08
2023-05-12T15:57:18.520Z,29.43
2023-05-12T15:59:46.633Z,30.30
2023-05-12T16:02:13.854Z,31.05
2023-05-12T16:04:41.071Z,31.68
2023-05-12T16:07:08.169Z,31.78
2023-05-12T16:09:35.464Z,31.90
2023-05-12T16:12:03.097Z,32.67
2023-05-12T16:14:30.772Z,33.11
2023-05-12T16:16:58.253Z,33.64
2023-05-12T16:19:28.102Z,33.98
2023-05-12T16:21:58.091Z,34.61
2023-05-12T16:24:28.708Z,34.69
2023-05-12T16:26:56.699Z,34.35
2023-05-12T16:29:25.308Z,33.92
2023-05-12T16:31:54.103Z,34.80
2023-05-12T16:34:21.865Z,34.97
2023-05-12T16:36:49.203Z,35.41
2023-05-12T16:39:16.457Z,35.74
2023-05-12T16:41:44.180Z,35.62
2023-05-12T16:44:11.457Z,35.47
2023-05-12T16:46:40.794Z,35.91
2023-05-12T16:49:08.878Z,36.55
2023-05-12T16:51:37.259Z,35.84
2023-05-12T16:54:04.839Z,36.12
2023-05-12T16:56:33.209Z,36.38
2023-05-12T16:59:01.728Z,35.81
2023-05-12T17:01:31.724Z,35.82
2023-05-12T17:03:59.497Z,35.30
2023-05-12T17:06:27.504Z,35.73
2023-05-12T17:08:56.043Z,35.42
2023-05-12T17:11:25.050Z,35.58
2023-05-12T17:13:53.925Z,34.91
2023-05-12T17:16:21.265Z,35.25
2023-05-12T17:21:20.600Z,35.63
2023-05-12T17:23:48.581Z,35.91
2023-05-12T17:26:16.125Z,35.93
2023-05-12T17:28:43.472Z,35.69
2023-05-12T17:31:11.315Z,36.15
2023-05-12T17:33:39.955Z,36.50
2023-05-12T17:36:12.783Z,36.16
2023-05-12T17:38:41.388Z,36.26
2023-05-12T17:41:08.750Z,36.10
2023-05-12T17:43:36.248Z,36.58
2023-05-12T17:46:05.152Z,36.37
2023-05-12T17:48:36.709Z,36.88
2023-05-12T17:51:04.906Z,36.80
2023-05-12T17:53:33.426Z,36.86
2023-05-12T17:56:00.854Z,36.36
2023-05-12T17:58:30.059Z,36.73
2023-05-12T18:00:57.672Z,37.10
2023-05-12T18:03:24.999Z,37.42
2023-05-12T18:05:54.575Z,37.51
2023-05-12T18:08:22.002Z,38.08
2023-05-12T18:10:49.410Z,37.70
2023-05-12T18:13:16.890Z,38.39
2023-05-12T18:15:46.320Z,38.07
2023-05-12T18:18:14.760Z,38.18
2023-05-12T18:20:42.560Z,38.58
2023-05-12T18:23:09.834Z,38.54
2023-05-12T18:25:43.426Z,38.61
2023-05-12T18:28:10.880Z,38.66
2023-05-12T18:30:38.314Z,39.06
2023-05-12T18:33:06.063Z,39.58
2023-05-12T18:35:34.131Z,38.95
2023-05-12T18:38:01.847Z,39.32
2023-05-12T18:40:29.186Z,39.75
2023-05-12T18:42:57.521Z,39.80
2023-05-12T18:45:25.077Z,39.93
2023-05-12T18:47:52.654Z,40.26
2023-05-12T18:50:20.951Z,40.37
2023-05-12T18:52:48.516Z,40.56
2023-05-12T18:55:18.215Z,40.62
2023-05-12T18:57:45.958Z,40.50
2023-05-12T19:00:13.836Z,40.46
2023-05-12T19:02:42.651Z,41.28
2023-05-12T19:05:10.777Z,41.13
2023-05-12T19:07:38.790Z,41.17
2023-05-12T19:10:06.727Z,41.35
2023-05-12T19:12:34.267Z,41.25
2023-05-12T19:15:01.933Z,41.22
2023-05-12T19:17:31.387Z,41.61
2023-05-12T19:20:01.305Z,41.77
2023-05-12T19:22:28.663Z,41.77
2023-05-12T19:24:56.238Z,41.90
2023-05-12T19:27:25.073Z,41.96
2023-05-12T19:29:52.935Z,41.95
2023-05-12T19:32:20.233Z,41.96
2023-05-12T19:34:51.226Z,42.14
2023-05-12T19:37:19.958Z,42.20
2023-05-12T19:39:47.360Z,42.31
2023-05-12T19:42:14.551Z,42.13
2023-05-12T19:44:44.202Z,42.23
2023-05-12T19:47:12.844Z,42.46
2023-05-12T19:49:40.037Z,42.46
2023-05-12T19:52:07.546Z,42.64
2023-05-12T19:54:34.825Z,42.99
2023-05-12T19:57:03.524Z,43.17
2023-05-12T19:59:31.764Z,43.58
2023-05-12T20:01:59.455Z,43.87
2023-05-12T20:04:27.493Z,43.56
2023-05-12T20:07:01.940Z,43.51
2023-05-12T20:09:31.409Z,43.89
2023-05-12T20:11:59.512Z,44.04
2023-05-12T20:14:27.802Z,44.16
2023-05-12T20:16:59.433Z,44.21
2023-05-12T20:19:33.991Z,44.40
2023-05-12T20:22:02.573Z,44.78
2023-05-12T20:24:30.023Z,45.09
2023-05-12T20:26:57.374Z,44.92
2023-05-12T20:29:30.095Z,45.28
2023-05-12T20:31:57.661Z,45.29
2023-05-12T20:34:25.892Z,45.93
2023-05-12T20:36:53.852Z,46.20
2023-05-12T20:39:21.278Z,46.39
2023-05-12T20:41:48.811Z,46.68
2023-05-12T20:44:16.308Z,47.07
2023-05-12T20:46:43.799Z,47.11
2023-05-12T20:49:11.104Z,47.32
2023-05-12T20:51:39.313Z,47.83
2023-05-12T20:54:06.682Z,47.71
2023-05-12T20:56:34.235Z,48.13
2023-05-12T20:59:01.805Z,48.24
2023-05-12T21:01:30.248Z,48.09
2023-05-12T21:03:57.876Z,48.43
2023-05-12T21:06:25.416Z,48.59
2023-05-12T21:08:53.661Z,49.41
2023-05-12T21:11:21.345Z,49.54
2023-05-12T21:13:48.613Z,50.06
2023-05-12T21:16:16.956Z,50.19
2023-05-12T21:18:44.478Z,50.67
2023-05-12T21:21:11.652Z,50.62
2023-05-12T21:23:39.213Z,50.79
2023-05-12T21:26:06.770Z,50.90
2023-05-12T21:28:34.103Z,51.12
2023-05-12T21:31:01.954Z,51.15
2023-05-12T21:33:31.609Z,51.33
2023-05-12T21:35:59.186Z,51.61
2023-05-12T21:38:27.518Z,51.61
2023-05-12T21:40:56.634Z,51.61
2023-05-12T21:43:23.914Z,54.28
2023-05-12T21:45:51.777Z,56.31
2023-05-12T21:48:19.740Z,57.10
2023-05-12T21:50:57.903Z,58.31
2023-05-12T21:53:25.715Z,58.35
2023-05-12T21:55:52.953Z,57.91
2023-05-12T21:58:20.467Z,58.25
2023-05-12T22:00:48.052Z,58.31
2023-05-12T22:03:15.300Z,58.19
2023-05-12T22:05:42.744Z,58.70
2023-05-12T22:08:10.210Z,58.11
2023-05-12T22:10:38.177Z,57.14
2023-05-12T22:13:05.749Z,55.46
2023-05-12T22:15:34.369Z,55.09
2023-05-12T22:18:08.875Z,55.28
2023-05-12T22:20:36.535Z,55.27
2023-05-12T22:23:04.179Z,55.28
2023-05-12T22:25:31.707Z,54.96
2023-05-12T22:27:59.188Z,55.45
2023-05-12T22:30:27.752Z,55.22
2023-05-12T22:32:55.176Z,54.98
2023-05-12T22:35:23.663Z,55.11
2023-05-12T22:37:51.130Z,54.60
2023-05-12T22:40:27.454Z,54.20
2023-05-12T22:42:54.747Z,53.96
2023-05-12T22:45:22.258Z,54.05
2023-05-12T22:47:49.721Z,53.16
2023-05-12T22:50:18.321Z,53.16
2023-05-12T22:52:45.594Z,53.02
2023-05-12T22:55:12.781Z,52.76
2023-05-12T22:57:43.970Z,52.77
2023-05-12T23:00:12.937Z,53.23
2023-05-12T23:02:40.101Z,53.30
2023-05-12T23:05:07.696Z,53.03
2023-05-12T23:07:34.946Z,52.88
2023-05-12T23:10:02.644Z,52.73
2023-05-12T23:12:29.841Z,52.77
2023-05-12T23:14:57.416Z,52.83
2023-05-12T23:17:24.764Z,52.86
2023-05-12T23:19:55.026Z,53.01
2023-05-12T23:22:22.363Z,52.88
2023-05-12T23:24:49.697Z,52.99
2023-05-12T23:27:17.096Z,52.97
2023-05-12T23:29:46.555Z,53.07
2023-05-12T23:32:14.243Z,53.28
2023-05-12T23:34:43.023Z,53.46
2023-05-12T23:37:10.693Z,55.68
2023-05-12T23:39:38.981Z,57.78
2023-05-12T23:42:06.735Z,57.37
2023-05-12T23:44:33.988Z,56.70
2023-05-12T23:47:01.405Z,56.95
2023-05-12T23:49:28.936Z,56.42
2023-05-12T23:51:56.427Z,55.46
2023-05-12T23:54:24.857Z,55.22
2023-05-12T23:56:52.267Z,54.60
2023-05-12T23:59:19.749Z,54.56
